createdAt,value
2018-09-13T00:02:26.491Z,6.10
2018-09-13T00:04:55.374Z,8.50
2018-09-13T00:07:24.232Z,7.83
2018-09-13T00:09:53.140Z,8.27
2018-09-13T00:12:22.053Z,7.70
2018-09-13T00:14:51.096Z,7.50
2018-09-13T00:17:19.992Z,5.43
2018-09-13T00:19:48.915Z,8.63
2018-09-13T00:22:17.775Z,6.70
2018-09-13T00:24:46.646Z,8.43
2018-09-13T00:27:15.520Z,8.33
2018-09-13T00:29:44.647Z,8.83
2018-09-13T00:32:13.513Z,7.50
2018-09-13T00:34:42.408Z,9.40
2018-09-13T00:37:11.350Z,8.53
2018-09-13T00:39:40.215Z,6.73
2018-09-13T00:42:09.084Z,8.97
2018-09-13T00:44:38.139Z,11.53
2018-09-13T00:47:11.221Z,8.00
2018-09-13T00:49:40.206Z,7.50
2018-09-13T00:52:09.143Z,6.77
2018-09-13T00:54:38.131Z,7.07
2018-09-13T00:57:07.128Z,8.37
2018-09-13T00:59:36.015Z,9.87
2018-09-13T01:02:05.061Z,7.93
2018-09-13T01:04:34.047Z,8.83
2018-09-13T01:07:03.117Z,7.53
2018-09-13T01:09:31.963Z,6.13
2018-09-13T01:12:00.819Z,6.77
2018-09-13T01:14:29.789Z,6.17
2018-09-13T01:17:00.145Z,9.23
2018-09-13T01:19:29.017Z,9.23
2018-09-13T01:21:57.878Z,9.23
2018-09-13T01:24:26.751Z,9.87
2018-09-13T01:26:55.704Z,7.93
2018-09-13T01:29:24.580Z,10.03
2018-09-13T01:31:53.470Z,9.80
2018-09-13T01:34:22.400Z,9.10
2018-09-13T01:36:51.293Z,10.10
2018-09-13T01:39:20.254Z,8.40
2018-09-13T01:41:49.156Z,10.43
2018-09-13T01:44:18.053Z,10.13
2018-09-13T01:46:46.947Z,8.00
2018-09-13T01:49:15.984Z,10.47
2018-09-13T01:51:44.890Z,10.97
2018-09-13T01:54:14.142Z,13.53
2018-09-13T01:56:43.035Z,11.53
2018-09-13T01:59:11.966Z,10.70
2018-09-13T02:01:40.973Z,9.93
2018-09-13T02:04:09.860Z,11.00
2018-09-13T02:06:38.956Z,15.07
2018-09-13T02:09:09.959Z,14.13
2018-09-13T02:11:38.811Z,11.07
2018-09-13T02:14:07.764Z,10.73
2018-09-13T02:16:36.684Z,15.10
2018-09-13T02:19:05.728Z,10.40
2018-09-13T02:21:34.643Z,9.37
2018-09-13T02:24:03.499Z,14.23
2018-09-13T02:26:32.356Z,13.07
2018-09-13T02:29:01.311Z,14.53
2018-09-13T02:31:30.328Z,14.33
2018-09-13T02:33:59.220Z,15.93
2018-09-13T02:36:28.117Z,13.60
2018-09-13T02:38:56.992Z,11.67
2018-09-13T02:41:25.839Z,13.30
2018-09-13T02:43:54.794Z,12.67
2018-09-13T02:46:23.801Z,12.50
2018-09-13T02:48:52.731Z,14.00
2018-09-13T02:51:21.603Z,10.93
2018-09-13T02:53:50.552Z,11.27
2018-09-13T02:56:19.431Z,11.37
2018-09-13T02:58:48.392Z,9.80
2018-09-13T03:01:17.272Z,11.83
2018-09-13T03:03:46.191Z,11.00
2018-09-13T03:06:15.138Z,9.63
2018-09-13T03:08:44.008Z,10.73
2018-09-13T03:11:12.886Z,7.87
2018-09-13T03:13:41.793Z,10.63
2018-09-13T03:16:10.835Z,10.93
2018-09-13T03:18:39.763Z,11.03
2018-09-13T03:21:08.668Z,11.87
2018-09-13T03:23:37.605Z,10.77
2018-09-13T03:26:06.500Z,9.03
2018-09-13T03:28:35.439Z,9.27
2018-09-13T03:31:04.378Z,8.67
2018-09-13T03:33:33.401Z,9.47
2018-09-13T03:36:02.356Z,10.90
2018-09-13T03:38:31.222Z,7.43
2018-09-13T03:41:00.107Z,8.60
2018-09-13T03:43:28.985Z,8.03
2018-09-13T03:45:57.851Z,9.30
2018-09-13T03:48:27.006Z,10.47
2018-09-13T03:50:55.896Z,8.83
2018-09-13T03:53:24.880Z,9.93
2018-09-13T03:55:53.896Z,8.97
2018-09-13T03:58:22.789Z,10.07
2018-09-13T04:00:51.643Z,8.27
2018-09-13T04:03:20.647Z,8.87
2018-09-13T04:05:49.833Z,8.53
2018-09-13T04:08:18.913Z,9.60
2018-09-13T04:10:47.837Z,11.53
2018-09-13T04:13:16.881Z,8.80
2018-09-13T04:15:45.952Z,9.90
2018-09-13T04:18:14.877Z,11.53
2018-09-13T04:20:43.802Z,8.37
2018-09-13T04:23:12.665Z,7.93
2018-09-13T04:25:41.568Z,7.90
2018-09-13T04:28:10.554Z,11.90
2018-09-13T04:30:39.455Z,8.93
2018-09-13T04:33:08.505Z,16.63
2018-09-13T04:35:37.447Z,10.10
2018-09-13T04:38:06.369Z,10.20
2018-09-13T04:40:35.242Z,7.70
2018-09-13T04:43:04.443Z,9.40
2018-09-13T04:45:33.417Z,15.57
2018-09-13T04:48:02.572Z,8.87
2018-09-13T04:50:31.615Z,14.07
2018-09-13T04:53:00.859Z,13.77
2018-09-13T04:55:30.046Z,9.80
2018-09-13T04:57:59.305Z,9.90
2018-09-13T05:00:28.317Z,10.57
2018-09-13T05:02:57.240Z,11.40
2018-09-13T05:05:26.520Z,10.93
2018-09-13T05:07:55.529Z,10.77
2018-09-13T05:10:24.728Z,8.17
2018-09-13T05:12:53.855Z,10.80
2018-09-13T05:15:24.576Z,12.40
2018-09-13T05:17:54.843Z,8.87
2018-09-13T05:20:23.794Z,10.13
2018-09-13T05:22:52.730Z,9.23
2018-09-13T05:25:21.712Z,9.53
2018-09-13T05:27:50.638Z,10.50
2018-09-13T05:30:19.684Z,8.37
2018-09-13T05:32:48.720Z,7.60
2018-09-13T05:35:17.586Z,8.77
2018-09-13T05:37:46.489Z,7.57
2018-09-13T05:40:15.386Z,7.90
2018-09-13T05:42:44.232Z,9.43
2018-09-13T05:45:13.183Z,7.40
2018-09-13T05:47:42.028Z,6.80
2018-09-13T05:50:11.385Z,8.40
2018-09-13T05:52:40.242Z,8.10
2018-09-13T05:55:09.152Z,7.50
2018-09-13T05:57:38.175Z,9.27
2018-09-13T06:00:07.383Z,6.43
2018-09-13T06:02:36.260Z,5.97
2018-09-13T06:05:05.191Z,7.47
2018-09-13T06:07:34.183Z,8.17
2018-09-13T06:10:03.134Z,9.80
2018-09-13T06:12:32.269Z,6.73
2018-09-13T06:15:01.122Z,6.87
2018-09-13T06:17:30.020Z,8.47
2018-09-13T06:19:59.145Z,10.13
2018-09-13T06:22:28.072Z,12.13
2018-09-13T06:24:56.923Z,10.37
2018-09-13T06:27:25.808Z,9.33
2018-09-13T06:29:54.743Z,13.10
2018-09-13T06:32:23.688Z,10.93
2018-09-13T06:34:52.560Z,9.43
2018-09-13T06:37:21.422Z,11.60
2018-09-13T06:39:50.280Z,11.23
2018-09-13T06:42:19.305Z,11.77
2018-09-13T06:44:48.139Z,11.00
2018-09-13T06:47:17.008Z,10.60
2018-09-13T06:49:45.907Z,12.33
2018-09-13T06:52:14.864Z,11.93
2018-09-13T06:54:43.745Z,10.57
2018-09-13T06:57:12.628Z,9.03
2018-09-13T06:59:41.571Z,9.00
2018-09-13T07:02:10.440Z,11.50
2018-09-13T07:04:39.319Z,9.33
2018-09-13T07:07:08.252Z,7.03
2018-09-13T07:09:37.228Z,7.40
2018-09-13T07:12:06.127Z,10.07
2018-09-13T07:14:35.125Z,7.90
2018-09-13T07:17:04.016Z,7.93
2018-09-13T07:19:32.916Z,7.33
2018-09-13T07:22:01.852Z,7.87
2018-09-13T07:24:31.088Z,8.10
2018-09-13T07:26:59.939Z,7.67
2018-09-13T07:29:28.797Z,7.80
2018-09-13T07:31:57.859Z,9.13
2018-09-13T07:34:26.703Z,7.77
2018-09-13T07:36:55.659Z,9.30
2018-09-13T07:39:24.540Z,12.63
2018-09-13T07:41:53.416Z,9.57
2018-09-13T07:44:22.291Z,10.80
2018-09-13T07:46:51.200Z,9.07
2018-09-13T07:49:20.196Z,7.97
2018-09-13T07:51:49.167Z,7.13
2018-09-13T07:54:18.032Z,8.27
2018-09-13T07:56:46.906Z,7.27
2018-09-13T07:59:15.813Z,8.10
2018-09-13T08:01:44.736Z,8.33
2018-09-13T08:04:13.611Z,6.13
2018-09-13T08:06:42.531Z,7.57
2018-09-13T08:09:12.944Z,8.90
2018-09-13T08:11:41.917Z,6.33
2018-09-13T08:14:10.776Z,6.83
2018-09-13T08:16:39.653Z,7.93
2018-09-13T08:19:08.565Z,7.27
2018-09-13T08:21:37.525Z,6.93
2018-09-13T08:24:07.315Z,6.43
2018-09-13T08:26:36.292Z,7.13
2018-09-13T08:29:05.207Z,7.63
2018-09-13T08:31:34.199Z,7.37
2018-09-13T08:34:03.308Z,8.33
2018-09-13T08:36:32.179Z,6.00
2018-09-13T08:39:01.087Z,6.83
2018-09-13T08:41:29.944Z,11.00
2018-09-13T08:43:58.815Z,6.80
2018-09-13T08:46:27.683Z,7.50
2018-09-13T08:48:56.576Z,6.23
2018-09-13T08:51:25.431Z,8.20
2018-09-13T08:53:54.319Z,5.47
2018-09-13T08:56:23.204Z,6.30
2018-09-13T08:58:52.113Z,8.73
2018-09-13T09:01:20.997Z,8.00
2018-09-13T09:03:49.901Z,6.27
2018-09-13T09:06:18.890Z,8.93
2018-09-13T09:08:47.836Z,7.30
2018-09-13T09:11:16.959Z,6.90
2018-09-13T09:13:45.920Z,6.40
2018-09-13T09:16:14.832Z,9.07
2018-09-13T09:18:43.909Z,6.87
2018-09-13T09:21:12.806Z,6.77
2018-09-13T09:23:41.650Z,7.90
2018-09-13T09:26:10.540Z,5.27
2018-09-13T09:28:39.575Z,6.40
2018-09-13T09:31:08.599Z,11.20
2018-09-13T09:33:37.484Z,6.53
2018-09-13T09:36:06.396Z,8.30
2018-09-13T09:38:35.289Z,5.50
2018-09-13T09:41:04.335Z,9.20
2018-09-13T09:43:33.260Z,9.47
2018-09-13T09:46:02.152Z,6.63
2018-09-13T09:48:31.056Z,7.60
2018-09-13T09:50:59.972Z,6.37
2018-09-13T09:53:29.078Z,8.37
2018-09-13T09:55:57.963Z,7.57
2018-09-13T09:58:26.949Z,6.13
2018-09-13T10:01:01.067Z,4.53
2018-09-13T10:03:30.000Z,6.00
2018-09-13T10:05:58.882Z,6.60
2018-09-13T10:08:27.932Z,6.80
2018-09-13T10:10:57.053Z,7.47
2018-09-13T10:13:25.920Z,6.77
2018-09-13T10:16:00.153Z,7.40
2018-09-13T10:18:34.279Z,6.40
2018-09-13T10:21:08.310Z,5.67
2018-09-13T10:23:42.315Z,5.60
2018-09-13T10:26:16.311Z,7.93
2018-09-13T10:28:50.225Z,6.27
2018-09-13T10:31:24.181Z,5.30
2018-09-13T10:33:58.276Z,5.60
2018-09-13T10:36:32.227Z,9.37
2018-09-13T10:39:06.289Z,5.57
2018-09-13T10:41:40.316Z,4.37
2018-09-13T10:44:14.280Z,6.20
2018-09-13T10:46:43.222Z,7.47
2018-09-13T10:49:17.289Z,8.60
2018-09-13T10:51:51.308Z,7.07
2018-09-13T10:54:22.217Z,5.57
2018-09-13T10:56:51.076Z,4.50
2018-09-13T10:59:20.145Z,8.07
2018-09-13T11:01:49.021Z,8.43
2018-09-13T11:04:17.926Z,6.27
2018-09-13T11:06:46.936Z,4.50
2018-09-13T11:09:15.815Z,10.00
2018-09-13T11:11:44.918Z,5.03
2018-09-13T11:14:18.787Z,6.10
2018-09-13T11:16:47.653Z,6.33
2018-09-13T11:19:16.531Z,7.03
2018-09-13T11:21:45.586Z,10.43
2018-09-13T11:24:14.663Z,6.43
2018-09-13T11:26:43.594Z,6.37
2018-09-13T11:29:12.472Z,8.00
2018-09-13T11:31:41.358Z,9.67
2018-09-13T11:34:10.296Z,6.80
2018-09-13T11:36:39.196Z,7.07
2018-09-13T11:39:10.675Z,6.60
2018-09-13T11:41:39.713Z,8.03
2018-09-13T11:44:08.780Z,5.90
2018-09-13T11:46:38.055Z,7.13
2018-09-13T11:49:07.076Z,5.00
2018-09-13T11:51:35.948Z,6.40
2018-09-13T11:54:04.909Z,12.07
2018-09-13T11:56:33.797Z,5.83
2018-09-13T11:59:02.648Z,9.57
2018-09-13T12:01:31.551Z,10.50
2018-09-13T12:04:00.530Z,6.53
2018-09-13T12:06:29.448Z,6.37
2018-09-13T12:08:58.411Z,6.13
2018-09-13T12:11:27.296Z,7.93
2018-09-13T12:13:56.191Z,9.63
2018-09-13T12:16:25.124Z,9.57
2018-09-13T12:18:54.014Z,7.97
2018-09-13T12:21:22.865Z,7.17
2018-09-13T12:23:51.737Z,8.47
2018-09-13T12:26:20.666Z,8.23
2018-09-13T12:28:49.708Z,8.93
2018-09-13T12:31:18.598Z,8.90
2018-09-13T12:33:47.641Z,8.53
2018-09-13T12:36:16.471Z,7.00
2018-09-13T12:38:45.376Z,8.03
2018-09-13T12:41:14.524Z,9.30
2018-09-13T12:43:43.420Z,7.50
2018-09-13T12:46:12.411Z,8.80
2018-09-13T12:48:41.298Z,6.40
2018-09-13T12:51:10.191Z,7.37
2018-09-13T12:53:39.111Z,7.13
2018-09-13T12:56:08.039Z,10.47
2018-09-13T12:58:36.984Z,6.57
2018-09-13T13:01:05.867Z,6.73
2018-09-13T13:03:34.764Z,6.63
2018-09-13T13:06:03.851Z,7.93
2018-09-13T13:08:32.775Z,5.10
2018-09-13T13:11:01.673Z,7.27
2018-09-13T13:13:30.757Z,8.50
2018-09-13T13:15:59.640Z,7.80
2018-09-13T13:18:28.527Z,6.93
2018-09-13T13:20:57.407Z,7.07
2018-09-13T13:23:26.263Z,7.87
2018-09-13T13:25:55.260Z,6.93
2018-09-13T13:28:24.201Z,6.73
2018-09-13T13:30:53.072Z,5.93
2018-09-13T13:33:22.031Z,4.03
2018-09-13T13:35:50.941Z,5.53
2018-09-13T13:38:19.832Z,3.83
2018-09-13T13:40:48.817Z,6.07
2018-09-13T13:43:17.672Z,4.93
2018-09-13T13:45:46.597Z,5.63
2018-09-13T13:48:15.591Z,7.20
2018-09-13T13:50:44.514Z,6.93
2018-09-13T13:53:13.600Z,5.13
2018-09-13T13:55:42.479Z,8.67
2018-09-13T13:58:11.365Z,5.20
2018-09-13T14:00:40.428Z,4.30
2018-09-13T14:03:09.490Z,6.47
2018-09-13T14:05:38.432Z,5.53
2018-09-13T14:08:07.352Z,5.97
2018-09-13T14:10:36.269Z,4.67
2018-09-13T14:13:05.181Z,4.37
2018-09-13T14:15:34.067Z,5.47
2018-09-13T14:18:03.107Z,6.33
2018-09-13T14:20:32.051Z,4.50
2018-09-13T14:23:00.911Z,6.33
2018-09-13T14:25:29.859Z,7.27
2018-09-13T14:27:58.837Z,4.60
2018-09-13T14:30:27.740Z,5.50
2018-09-13T14:32:56.741Z,5.30
2018-09-13T14:35:25.647Z,10.60
2018-09-13T14:37:54.504Z,5.63
2018-09-13T14:40:23.365Z,6.00
2018-09-13T14:42:52.251Z,6.83
2018-09-13T14:45:21.192Z,6.30
2018-09-13T14:47:50.267Z,5.00
2018-09-13T14:50:19.143Z,5.50
2018-09-13T14:52:48.124Z,6.27
2018-09-13T14:55:17.099Z,6.53
2018-09-13T14:57:45.963Z,7.87
2018-09-13T15:00:14.849Z,7.00
2018-09-13T15:02:44.083Z,5.53
2018-09-13T15:05:13.075Z,5.47
2018-09-13T15:07:41.974Z,4.23
2018-09-13T15:10:10.871Z,7.77
2018-09-13T15:12:40.205Z,5.63
2018-09-13T15:15:09.251Z,5.07
2018-09-13T15:17:38.128Z,8.83
2018-09-13T15:20:07.343Z,4.20
2018-09-13T15:22:36.238Z,5.33
2018-09-13T15:25:05.188Z,8.17
2018-09-13T15:27:34.283Z,4.33
2018-09-13T15:30:03.148Z,5.00
2018-09-13T15:32:32.127Z,4.93
2018-09-13T15:35:01.047Z,5.33
2018-09-13T15:37:29.929Z,5.60
2018-09-13T15:40:01.194Z,5.73
2018-09-13T15:42:30.076Z,4.43
2018-09-13T15:44:59.341Z,3.77
2018-09-13T15:47:28.228Z,4.33
2018-09-13T15:49:57.256Z,3.60
2018-09-13T15:52:26.599Z,4.23
2018-09-13T15:54:56.286Z,5.07
2018-09-13T15:57:25.384Z,5.30
2018-09-13T15:59:54.268Z,6.73
2018-09-13T16:02:23.732Z,4.93
2018-09-13T16:04:52.780Z,7.63
2018-09-13T16:07:21.712Z,5.20
2018-09-13T16:09:51.428Z,5.27
2018-09-13T16:12:20.366Z,7.13
2018-09-13T16:14:51.309Z,7.97
2018-09-13T16:17:20.555Z,5.47
2018-09-13T16:19:49.808Z,5.00
2018-09-13T16:22:19.211Z,4.90
2018-09-13T16:24:48.392Z,5.40
2018-09-13T16:27:18.652Z,7.27
2018-09-13T16:29:47.604Z,5.77
2018-09-13T16:32:30.939Z,8.40
2018-09-13T16:35:00.311Z,6.77
2018-09-13T16:37:34.409Z,5.27
2018-09-13T16:40:10.623Z,5.67
2018-09-13T16:42:53.216Z,7.63
2018-09-13T16:45:27.255Z,6.20
2018-09-13T16:48:00.631Z,7.83
2018-09-13T16:50:29.776Z,5.93
2018-09-13T16:52:58.832Z,6.50
2018-09-13T16:55:28.691Z,5.13
2018-09-13T16:57:58.048Z,7.83
2018-09-13T17:00:27.496Z,8.53
2018-09-13T17:02:56.701Z,6.10
2018-09-13T17:05:25.640Z,4.40
2018-09-13T17:07:55.904Z,5.00
2018-09-13T17:10:25.429Z,4.00
2018-09-13T17:12:55.920Z,5.07
2018-09-13T17:15:25.262Z,7.67
2018-09-13T17:17:54.278Z,12.10
2018-09-13T17:20:23.274Z,7.93
2018-09-13T17:22:52.851Z,10.87
2018-09-13T17:25:22.113Z,8.67
2018-09-13T17:27:53.138Z,9.20
2018-09-13T17:30:26.780Z,9.37
2018-09-13T17:33:11.215Z,10.67
2018-09-13T17:35:57.287Z,7.03
2018-09-13T17:38:26.924Z,7.00
2018-09-13T17:40:55.809Z,7.40
2018-09-13T17:43:24.708Z,9.03
2018-09-13T17:45:53.941Z,11.40
2018-09-13T17:48:22.844Z,11.33
2018-09-13T17:50:51.927Z,7.30
2018-09-13T17:53:20.899Z,11.03
2018-09-13T17:55:50.089Z,12.30
2018-09-13T17:58:19.234Z,8.90
2018-09-13T18:00:48.173Z,9.67
2018-09-13T18:03:17.487Z,9.90
2018-09-13T18:05:46.865Z,13.17
2018-09-13T18:08:16.112Z,10.73
2018-09-13T18:10:45.005Z,15.17
2018-09-13T18:13:14.035Z,12.23
2018-09-13T18:15:43.225Z,13.97
2018-09-13T18:18:12.151Z,13.30
2018-09-13T18:20:41.073Z,14.27
2018-09-13T18:23:09.937Z,20.13
2018-09-13T18:25:38.840Z,12.90
2018-09-13T18:28:07.788Z,14.03
2018-09-13T18:30:37.142Z,14.53
2018-09-13T18:33:06.109Z,14.17
2018-09-13T18:35:35.029Z,16.07
2018-09-13T18:38:03.923Z,15.30
2018-09-13T18:40:32.879Z,18.50
2018-09-13T18:43:01.832Z,21.33
2018-09-13T18:45:31.110Z,18.00
2018-09-13T18:48:00.240Z,17.33
2018-09-13T18:50:29.340Z,17.37
2018-09-13T18:52:58.570Z,22.13
2018-09-13T18:55:27.676Z,20.10
2018-09-13T18:57:56.762Z,17.63
2018-09-13T19:00:27.777Z,16.87
2018-09-13T19:02:56.777Z,18.47
2018-09-13T19:05:25.760Z,18.07
2018-09-13T19:07:55.199Z,19.07
2018-09-13T19:10:24.111Z,16.43
2018-09-13T19:12:53.016Z,14.47
2018-09-13T19:15:21.928Z,18.50
2018-09-13T19:17:50.908Z,22.10
2018-09-13T19:20:19.839Z,22.93
2018-09-13T19:22:48.721Z,22.73
2018-09-13T19:25:17.738Z,20.47
2018-09-13T19:27:46.828Z,24.80
2018-09-13T19:30:15.952Z,24.90
2018-09-13T19:32:45.048Z,24.67
2018-09-13T19:35:14.130Z,26.00
2018-09-13T19:37:43.521Z,22.63
2018-09-13T19:40:13.111Z,26.97
2018-09-13T19:42:42.319Z,28.00
2018-09-13T19:45:11.440Z,35.90
2018-09-13T19:47:40.893Z,34.57
2018-09-13T19:50:10.187Z,31.83
2018-09-13T19:52:39.236Z,34.90
2018-09-13T19:55:08.650Z,31.07
2018-09-13T19:57:37.684Z,28.67
2018-09-13T20:00:07.390Z,36.63
2018-09-13T20:02:36.309Z,37.33
2018-09-13T20:05:05.572Z,32.53
2018-09-13T20:07:34.454Z,29.93
2018-09-13T20:10:04.401Z,32.03
2018-09-13T20:12:33.374Z,37.03
2018-09-13T20:15:02.953Z,33.43
2018-09-13T20:17:32.663Z,35.27
2018-09-13T20:20:02.760Z,36.83
2018-09-13T20:22:31.752Z,34.27
2018-09-13T20:25:01.221Z,38.50
2018-09-13T20:27:33.785Z,37.37
2018-09-13T20:30:02.889Z,45.20
2018-09-13T20:32:38.365Z,42.67
2018-09-13T20:35:07.313Z,68.27
2018-09-13T20:37:36.455Z,42.03
2018-09-13T20:40:05.904Z,44.77
2018-09-13T20:42:35.803Z,47.63
2018-09-13T20:45:08.912Z,47.20
2018-09-13T20:47:38.789Z,46.23
2018-09-13T20:50:08.448Z,43.07
2018-09-13T20:52:41.547Z,43.70
2018-09-13T20:55:10.885Z,43.77
2018-09-13T20:57:40.872Z,43.70
2018-09-13T21:00:10.357Z,47.73
2018-09-13T21:02:39.800Z,47.37
2018-09-13T21:05:09.444Z,45.90
2018-09-13T21:07:40.310Z,49.97
2018-09-13T21:10:10.224Z,48.27
2018-09-13T21:12:40.065Z,53.13
2018-09-13T21:15:09.529Z,51.13
2018-09-13T21:17:38.511Z,55.90
2018-09-13T21:20:08.056Z,55.87
2018-09-13T21:22:37.031Z,49.43
2018-09-13T21:25:07.532Z,57.23
2018-09-13T21:27:36.810Z,51.17
2018-09-13T21:30:05.976Z,57.87
2018-09-13T21:32:34.987Z,54.87
2018-09-13T21:35:04.247Z,49.70
2018-09-13T21:37:33.292Z,47.93
2018-09-13T21:40:02.337Z,54.20
2018-09-13T21:42:31.242Z,46.77
2018-09-13T21:45:00.678Z,50.27
2018-09-13T21:47:29.569Z,52.40
2018-09-13T21:49:58.525Z,58.35
2018-09-13T21:52:27.472Z,51.07
2018-09-13T21:54:56.558Z,61.17
2018-09-13T21:57:25.652Z,61.90
2018-09-13T21:59:54.965Z,66.80
2018-09-13T22:02:24.060Z,60.23
2018-09-13T22:04:53.256Z,59.43
2018-09-13T22:07:22.141Z,63.43
2018-09-13T22:09:51.052Z,64.43
2018-09-13T22:12:20.626Z,53.43
2018-09-13T22:14:50.132Z,59.37
2018-09-13T22:17:19.136Z,53.90
2018-09-13T22:19:48.460Z,46.17
2018-09-13T22:22:17.726Z,55.53
2018-09-13T22:24:47.121Z,62.43
2018-09-13T22:27:16.676Z,54.33
2018-09-13T22:29:45.900Z,62.97
2018-09-13T22:32:15.069Z,64.50
2018-09-13T22:34:44.214Z,49.17
2018-09-13T22:37:13.429Z,46.20
2018-09-13T22:39:42.870Z,50.53
2018-09-13T22:42:37.919Z,64.27
2018-09-13T22:45:07.491Z,69.07
2018-09-13T22:47:36.723Z,64.17
2018-09-13T22:50:06.274Z,69.80
2018-09-13T22:52:35.432Z,79.17
2018-09-13T22:55:04.787Z,65.27
2018-09-13T22:57:34.385Z,66.40
2018-09-13T23:00:04.636Z,72.77
2018-09-13T23:02:41.009Z,72.27
2018-09-13T23:05:10.385Z,63.17
2018-09-13T23:07:39.924Z,55.67
2018-09-13T23:10:08.819Z,57.97
2018-09-13T23:12:37.764Z,58.93
2018-09-13T23:15:06.991Z,45.37
2018-09-13T23:17:35.974Z,51.50
2018-09-13T23:20:05.223Z,46.77
2018-09-13T23:22:34.961Z,55.50
2018-09-13T23:25:04.500Z,55.30
2018-09-13T23:27:33.787Z,55.53
2018-09-13T23:30:02.839Z,54.17
2018-09-13T23:32:31.719Z,43.27
2018-09-13T23:35:01.021Z,54.47
2018-09-13T23:37:30.140Z,54.70
2018-09-13T23:39:59.337Z,47.73
2018-09-13T23:42:28.564Z,49.03
2018-09-13T23:44:57.448Z,55.33
2018-09-13T23:47:26.629Z,72.47
2018-09-13T23:49:55.935Z,76.13
2018-09-13T23:52:25.200Z,64.07
2018-09-13T23:54:54.107Z,73.50
2018-09-13T23:57:22.976Z,75.70
2018-09-13T23:59:52.393Z,68.97
